Atmautluak, AK

11:04 PM AKDT on September 30, 2014 (GMT -0800)
Nunapitchuk AP, Nunapitchuk, | Change Station
CLOSE
Current Station
Airport
Location: Nunapitchuk AP, Nunapitchuk,,
Elevation: 13 ft
Nearby Weather Stations

Elev 13 ft 60.91 °N, 162.44 °W | Updated 1 hour ago

Partly Cloudy
Partly Cloudy
41 °F
Feels Like 39 °F
N
4
Wind Variable Wind from ESE

Today
High -- | Low -- °F
--% Chance of Precip.
Yesterday
High -- | Low -- °F
Precip. -- in
8:55 AM 8:24 PM
Waxing Crescent, 44% visible
Pressure 30.38 in
Visibility 10.0 miles
Clouds Few 3600 ft
Windchill 39 °F
Dew Point 37 °F
Humidity 86%
Rainfall 0.00 in
Snow Depth 102 in , 0 in , 15 in
UV 0 out of 12
Pollen Not available.
Air Quality Not available.
Flu Activity Not available.
METAR PPIT 010556Z AUTO 11003KT 10SM FEW036 05/03 A3038 RMK AO2 SLP287 T00500028 10083 20050 53003

More Conditions Fewer Conditions

Pressure 30.38 in
Visibility 10.0 miles
Clouds Few 3600 ft
Windchill 39 °F
Dew Point 37 °F
Humidity 86%
Rainfall 0.00 in
Snow Depth 102 in , 0 in , 15 in
UV 0 out of 12
Pollen Not available.
Air Quality Not available.
Flu Activity Not available.
METAR PPIT 010556Z AUTO 11003KT 10SM FEW036 05/03 A3038 RMK AO2 SLP287 T00500028 10083 20050 53003

More Conditions Fewer Conditions

10-Day Weather Forecast

Almanac

Astronomy

Sep. 30, 2014 Rise Set
Actual Time 8:55 AM AKDT 8:24 PM AKDT
Civil Twilight 8:12 AM AKDT 9:07 PM AKDT
Nautical Twilight 7:22 AM AKDT 9:57 PM AKDT
Astronomical Twilight 6:29 AM AKDT 10:50 PM AKDT
Moon 4:31 PM AKDT (9/30) 11:51 PM AKDT (9/30)
Length of Visible Light 12h 54m
Length of Day
11h 29m
Tomorrow will be 5m 34s shorter.
Waxing Crescent, 44% of the Moon is Illuminated
Oct 1
Waxing Crescent
Oct 1
First Quarter
Oct 8
Full
Oct 15
Last Quarter
Oct 23
New

Community

WunderPhotos

Upload Photos

1,757,898 photos uploaded!

Nearby

Snow Depth

Station Depth Elevation
Atigun Pass 102 in 4800 ft
Granite Creek 0 in 1240 ft
Imnaviat Creek 15 in 3050 ft
MF Bradley River 1 in 2300 ft
Grouse Creek Divide 0 in 700 ft

Earthquake Activity

City Distance Mag. Time & Date
No recent earthquake activity has been reported nearby.
Minimum magnitude displayed is 2.5.

Coastal Water Temperatures

Place Temperature
No Stations Reporting

Nearby Weather Stations